Station Historical Data
Daily Summary for October 7, 2017 Units:  English    Metric   Both
« Previous Day
Next Day »
Daily Weekly Monthly Yearly Custom
  High: Low: Average:
Temperature: 79.2 °F 60.0 °F 66.8 °F
Dew Point: 41.3 °F 34.7 °F 37.3 °F
Humidity: 41 % 22 % 34 %
Wind Speed: 12.0 mph 0.0 mph 2.6 mph
Wind Gust: 18.0 mph - -
Wind:- - SE
Pressure: 30.01 in 29.81 in -
Precipitation: 0.00 in    
Historical Graphs
 
 
Tabular Data for October 7, 2017
Time Temperature Dew Point Pressure Wind Wind Speed Wind Gust Humidity Rainfall Rate (Hourly) solar
00:03 62.1 °F 37.5 °F 30.01 in ESE 4.0 mph 9.0 mph 40 % 0.00 in 0.00 W/m2
00:08 62.1 °F 37.5 °F 30.01 in ESE 4.0 mph 7.0 mph 40 % 0.00 in 0.00 W/m2
00:13 62.0 °F 37.4 °F 30.01 in ESE 5.0 mph 12.0 mph 40 % 0.00 in 0.00 W/m2
00:18 62.0 °F 37.4 °F 30.01 in ESE 1.0 mph 5.0 mph 40 % 0.00 in 0.00 W/m2
00:23 62.0 °F 37.4 °F 30.00 in Calm   4.0 mph 40 % 0.00 in 0.00 W/m2
00:28 61.9 °F 37.3 °F 30.00 in ESE 7.0 mph 13.0 mph 40 % 0.00 in 0.00 W/m2
00:33 61.8 °F 37.2 °F 30.00 in Calm   8.0 mph 40 % 0.00 in 0.00 W/m2
00:38 61.6 °F 37.1 °F 30.00 in ESE 1.0 mph 7.0 mph 40 % 0.00 in 0.00 W/m2
00:43 61.5 °F 37.0 °F 30.00 in Calm   11.0 mph 40 % 0.00 in 0.00 W/m2
00:48 61.4 °F 36.9 °F 30.00 in ESE 1.0 mph 9.0 mph 40 % 0.00 in 0.00 W/m2
00:53 61.4 °F 36.9 °F 30.00 in ESE 5.0 mph 9.0 mph 40 % 0.00 in 0.00 W/m2
00:58 61.3 °F 37.4 °F 30.00 in Calm   7.0 mph 41 % 0.00 in 0.00 W/m2
01:03 61.2 °F 36.7 °F 29.99 in Calm   9.0 mph 40 % 0.00 in 0.00 W/m2
01:08 61.1 °F 36.6 °F 29.99 in ESE 9.0 mph 9.0 mph 40 % 0.00 in 0.00 W/m2
01:13 61.1 °F 37.2 °F 29.99 in East 2.0 mph 11.0 mph 41 % 0.00 in 0.00 W/m2
01:18 61.1 °F 37.2 °F 29.99 in Calm   9.0 mph 41 % 0.00 in 0.00 W/m2
01:23 61.0 °F 37.2 °F 29.99 in ESE 8.0 mph 13.0 mph 41 % 0.00 in 0.00 W/m2
01:28 61.0 °F 37.2 °F 29.99 in East 2.0 mph 11.0 mph 41 % 0.00 in 0.00 W/m2
01:38 60.9 °F 37.1 °F 29.99 in ESE 11.0 mph 13.0 mph 41 % 0.00 in 0.00 W/m2
01:43 60.8 °F 37.0 °F 29.99 in ESE 5.0 mph 12.0 mph 41 % 0.00 in 0.00 W/m2
01:49 60.8 °F 37.0 °F 29.99 in East 6.0 mph 13.0 mph 41 % 0.00 in 0.00 W/m2
01:54 60.8 °F 37.0 °F 29.99 in East 4.0 mph 11.0 mph 41 % 0.00 in 0.00 W/m2
01:59 60.8 °F 37.0 °F 29.98 in East 8.0 mph 15.0 mph 41 % 0.00 in 0.00 W/m2
02:04 60.8 °F 37.0 °F 29.99 in Calm   12.0 mph 41 % 0.00 in 0.00 W/m2
02:09 60.8 °F 37.0 °F 29.99 in Calm   12.0 mph 41 % 0.00 in 0.00 W/m2
02:14 60.8 °F 37.0 °F 29.99 in Calm   12.0 mph 41 % 0.00 in 0.00 W/m2
02:19 60.8 °F 37.0 °F 29.99 in East 1.0 mph 9.0 mph 41 % 0.00 in 0.00 W/m2
02:24 60.8 °F 37.0 °F 29.98 in East 6.0 mph 12.0 mph 41 % 0.00 in 0.00 W/m2
02:29 60.8 °F 37.0 °F 29.98 in ESE 5.0 mph 13.0 mph 41 % 0.00 in 0.00 W/m2
02:34 60.8 °F 37.0 °F 29.98 in East 1.0 mph 13.0 mph 41 % 0.00 in 0.00 W/m2
02:39 60.8 °F 36.3 °F 29.98 in East 4.0 mph 12.0 mph 40 % 0.00 in 0.00 W/m2
02:44 60.8 °F 37.0 °F 29.98 in ESE 8.0 mph 11.0 mph 41 % 0.00 in 0.00 W/m2
02:49 60.8 °F 37.0 °F 29.98 in ESE 6.0 mph 8.0 mph 41 % 0.00 in 0.00 W/m2
02:54 60.8 °F 37.0 °F 29.98 in Calm   11.0 mph 41 % 0.00 in 0.00 W/m2
02:59 60.7 °F 36.3 °F 29.98 in East 7.0 mph 11.0 mph 40 % 0.00 in 0.00 W/m2
03:04 60.7 °F 36.3 °F 29.98 in ESE 5.0 mph 11.0 mph 40 % 0.00 in 0.00 W/m2
03:09 60.7 °F 36.3 °F 29.98 in Calm   13.0 mph 40 % 0.00 in 0.00 W/m2
03:14 60.7 °F 36.3 °F 29.98 in East 8.0 mph 11.0 mph 40 % 0.00 in 0.00 W/m2
03:19 60.7 °F 36.3 °F 29.98 in ESE 1.0 mph 11.0 mph 40 % 0.00 in 0.00 W/m2
03:24 60.7 °F 36.3 °F 29.98 in ESE 4.0 mph 12.0 mph 40 % 0.00 in 0.00 W/m2
03:29 60.7 °F 36.3 °F 29.98 in ESE 1.0 mph 11.0 mph 40 % 0.00 in 0.00 W/m2
03:34 60.6 °F 36.2 °F 29.98 in ESE 4.0 mph 15.0 mph 40 % 0.00 in 0.00 W/m2
03:39 60.6 °F 36.2 °F 29.98 in ESE 9.0 mph 15.0 mph 40 % 0.00 in 0.00 W/m2
03:44 60.6 °F 36.8 °F 29.98 in East 7.0 mph 12.0 mph 41 % 0.00 in 0.00 W/m2
03:49 60.5 °F 36.1 °F 29.98 in ESE 8.0 mph 13.0 mph 40 % 0.00 in 0.00 W/m2
03:54 60.5 °F 36.7 °F 29.97 in East 6.0 mph 16.0 mph 41 % 0.00 in 0.00 W/m2
03:59 60.5 °F 36.1 °F 29.97 in ESE 1.0 mph 13.0 mph 40 % 0.00 in 0.00 W/m2
04:04 60.5 °F 36.1 °F 29.97 in East 12.0 mph 18.0 mph 40 % 0.00 in 0.00 W/m2
04:09 60.5 °F 36.1 °F 29.97 in ESE 5.0 mph 13.0 mph 40 % 0.00 in 0.00 W/m2
04:14 60.5 °F 36.1 °F 29.97 in ESE 12.0 mph 14.0 mph 40 % 0.00 in 0.00 W/m2
04:19 60.5 °F 36.1 °F 29.97 in East 11.0 mph 14.0 mph 40 % 0.00 in 0.00 W/m2
04:24 60.5 °F 36.1 °F 29.97 in ESE 9.0 mph 13.0 mph 40 % 0.00 in 0.00 W/m2
04:29 60.6 °F 36.2 °F 29.97 in East 2.0 mph 13.0 mph 40 % 0.00 in 0.00 W/m2
04:34 60.6 °F 36.2 °F 29.97 in ESE 4.0 mph 12.0 mph 40 % 0.00 in 0.00 W/m2
04:39 60.7 °F 36.3 °F 29.97 in ESE 6.0 mph 12.0 mph 40 % 0.00 in 0.00 W/m2
04:44 60.7 °F 35.6 °F 29.97 in ESE 9.0 mph 16.0 mph 39 % 0.00 in 0.00 W/m2
04:49 60.7 °F 36.3 °F 29.97 in ESE 8.0 mph 12.0 mph 40 % 0.00 in 0.00 W/m2
04:54 60.7 °F 36.3 °F 29.97 in East 6.0 mph 13.0 mph 40 % 0.00 in 0.00 W/m2
05:00 60.7 °F 36.3 °F 29.97 in East 2.0 mph 9.0 mph 40 % 0.00 in 0.00 W/m2
05:05 60.7 °F 36.3 °F 29.97 in East 7.0 mph 13.0 mph 40 % 0.00 in 0.00 W/m2
05:10 60.7 °F 36.3 °F 29.97 in Calm   12.0 mph 40 % 0.00 in 0.00 W/m2
05:15 60.6 °F 36.2 °F 29.97 in East 2.0 mph 15.0 mph 40 % 0.00 in 0.00 W/m2
05:20 60.5 °F 36.1 °F 29.97 in ESE 5.0 mph 15.0 mph 40 % 0.00 in 0.00 W/m2
05:25 60.5 °F 36.1 °F 29.97 in East 1.0 mph 12.0 mph 40 % 0.00 in 0.00 W/m2
05:30 60.5 °F 36.1 °F 29.97 in ESE 7.0 mph 12.0 mph 40 % 0.00 in 0.00 W/m2
05:35 60.5 °F 36.1 °F 29.96 in East 1.0 mph 15.0 mph 40 % 0.00 in 0.00 W/m2
05:40 60.6 °F 36.2 °F 29.96 in ESE 9.0 mph 13.0 mph 40 % 0.00 in 0.00 W/m2
05:45 60.6 °F 36.2 °F 29.96 in East 7.0 mph 14.0 mph 40 % 0.00 in 0.00 W/m2
05:50 60.6 °F 36.2 °F 29.96 in Calm   11.0 mph 40 % 0.00 in 0.00 W/m2
05:55 60.5 °F 36.1 °F 29.96 in ESE 7.0 mph 11.0 mph 40 % 0.00 in 0.00 W/m2
06:00 60.5 °F 36.1 °F 29.96 in East 11.0 mph 13.0 mph 40 % 0.00 in 0.00 W/m2
06:05 60.4 °F 36.0 °F 29.96 in East 2.0 mph 11.0 mph 40 % 0.00 in 0.00 W/m2
06:10 60.3 °F 35.9 °F 29.96 in East 2.0 mph 11.0 mph 40 % 0.00 in 0.00 W/m2
06:15 60.3 °F 35.9 °F 29.96 in Calm   13.0 mph 40 % 0.00 in 0.00 W/m2
06:20 60.2 °F 35.8 °F 29.96 in ESE 11.0 mph 13.0 mph 40 % 0.00 in 0.00 W/m2
06:30 60.0 °F 35.6 °F 29.96 in ESE 6.0 mph 13.0 mph 40 % 0.00 in 0.00 W/m2
06:35 60.0 °F 35.6 °F 29.96 in ESE 7.0 mph 13.0 mph 40 % 0.00 in 0.00 W/m2
06:40 60.0 °F 35.6 °F 29.95 in East 5.0 mph 14.0 mph 40 % 0.00 in 0.00 W/m2
06:44 60.0 °F 35.6 °F 29.95 in Calm   14.0 mph 40 % 0.00 in 0.00 W/m2
06:54 60.1 °F 35.7 °F 29.95 in East 4.0 mph 13.0 mph 40 % 0.00 in 0.00 W/m2
06:59 60.1 °F 35.7 °F 29.95 in East 7.0 mph 14.0 mph 40 % 0.00 in 0.00 W/m2
07:04 60.1 °F 35.7 °F 29.95 in East 8.0 mph 14.0 mph 40 % 0.00 in 5.00 W/m2
07:09 60.1 °F 35.7 °F 29.95 in ESE 9.0 mph 14.0 mph 40 % 0.00 in 7.00 W/m2
07:14 60.2 °F 35.8 °F 29.95 in East 9.0 mph 14.0 mph 40 % 0.00 in 9.00 W/m2
07:19 60.2 °F 35.8 °F 29.95 in East 11.0 mph 15.0 mph 40 % 0.00 in 12.00 W/m2
07:24 60.2 °F 35.8 °F 29.95 in East 7.0 mph 15.0 mph 40 % 0.00 in 16.00 W/m2
07:29 60.2 °F 35.8 °F 29.95 in East 12.0 mph 16.0 mph 40 % 0.00 in 19.00 W/m2
07:34 60.2 °F 35.8 °F 29.95 in ESE 4.0 mph 15.0 mph 40 % 0.00 in 28.00 W/m2
07:40 60.3 °F 36.5 °F 29.95 in East 5.0 mph 14.0 mph 41 % 0.00 in 42.00 W/m2
07:45 60.3 °F 36.5 °F 29.95 in Calm   13.0 mph 41 % 0.00 in 54.00 W/m2
07:50 60.4 °F 36.0 °F 29.95 in ESE 11.0 mph 16.0 mph 40 % 0.00 in 74.00 W/m2
07:55 60.5 °F 36.1 °F 29.95 in ESE 6.0 mph 13.0 mph 40 % 0.00 in 90.00 W/m2
08:00 60.5 °F 36.1 °F 29.95 in ESE 5.0 mph 13.0 mph 40 % 0.00 in 102.00 W/m2
08:05 60.6 °F 36.8 °F 29.95 in East 6.0 mph 14.0 mph 41 % 0.00 in 125.00 W/m2
08:10 60.7 °F 36.9 °F 29.95 in Calm   11.0 mph 41 % 0.00 in 146.00 W/m2
08:15 60.8 °F 37.0 °F 29.95 in ESE 4.0 mph 13.0 mph 41 % 0.00 in 162.00 W/m2
08:20 60.9 °F 37.1 °F 29.95 in East 8.0 mph 15.0 mph 41 % 0.00 in 185.00 W/m2
08:25 61.0 °F 37.2 °F 29.95 in ESE 5.0 mph 15.0 mph 41 % 0.00 in 204.00 W/m2
08:30 61.1 °F 37.2 °F 29.95 in Calm   13.0 mph 41 % 0.00 in 229.00 W/m2
08:35 61.3 °F 37.4 °F 29.95 in East 11.0 mph 14.0 mph 41 % 0.00 in 239.00 W/m2
08:40 61.4 °F 36.9 °F 29.96 in East 11.0 mph 14.0 mph 40 % 0.00 in 265.00 W/m2
08:45 61.6 °F 37.7 °F 29.96 in ESE 6.0 mph 13.0 mph 41 % 0.00 in 279.00 W/m2
08:50 61.8 °F 37.2 °F 29.96 in ESE 4.0 mph 15.0 mph 40 % 0.00 in 304.00 W/m2
08:55 62.0 °F 38.0 °F 29.96 in East 7.0 mph 14.0 mph 41 % 0.00 in 316.00 W/m2
09:00 62.2 °F 38.2 °F 29.96 in Calm   13.0 mph 41 % 0.00 in 336.00 W/m2
09:05 62.3 °F 38.3 °F 29.96 in ESE 7.0 mph 7.0 mph 41 % 0.00 in 352.00 W/m2
09:10 62.6 °F 38.6 °F 29.96 in Calm   12.0 mph 41 % 0.00 in 366.00 W/m2
09:15 62.7 °F 38.7 °F 29.96 in ESE 2.0 mph 8.0 mph 41 % 0.00 in 381.00 W/m2
09:25 63.2 °F 39.1 °F 29.96 in ESE 5.0 mph 9.0 mph 41 % 0.00 in 406.00 W/m2
09:30 63.5 °F 38.8 °F 29.96 in ESE 1.0 mph 8.0 mph 40 % 0.00 in 424.00 W/m2
09:35 63.8 °F 39.0 °F 29.96 in ESE 2.0 mph 8.0 mph 40 % 0.00 in 436.00 W/m2
09:40 64.1 °F 39.3 °F 29.96 in Calm   5.0 mph 40 % 0.00 in 452.00 W/m2
09:50 64.6 °F 40.4 °F 29.96 in Calm   5.0 mph 41 % 0.00 in 478.00 W/m2
09:55 64.9 °F 40.7 °F 29.96 in ESE 1.0 mph 6.0 mph 41 % 0.00 in 494.00 W/m2
10:05 65.6 °F 41.3 °F 29.96 in Calm   4.0 mph 41 % 0.00 in 519.00 W/m2
10:16 66.2 °F 37.8 °F 29.96 in Calm   5.0 mph 35 % 0.00 in 543.00 W/m2
10:21 66.5 °F 38.0 °F 29.96 in Calm   6.0 mph 35 % 0.00 in 554.00 W/m2
10:26 66.9 °F 39.1 °F 29.96 in ESE 1.0 mph 5.0 mph 36 % 0.00 in 566.00 W/m2
10:31 67.3 °F 38.7 °F 29.96 in Calm   2.0 mph 35 % 0.00 in 578.00 W/m2
10:36 67.8 °F 37.7 °F 29.96 in SE 2.0 mph 2.0 mph 33 % 0.00 in 589.00 W/m2
10:40 68.3 °F 38.1 °F 29.96 in Calm   4.0 mph 33 % 0.00 in 598.00 W/m2
10:45 68.8 °F 38.5 °F 29.96 in SE 1.0 mph 7.0 mph 33 % 0.00 in 606.00 W/m2
10:51 69.2 °F 36.5 °F 29.95 in Calm   5.0 mph 30 % 0.00 in 619.00 W/m2
10:56 69.7 °F 38.5 °F 29.95 in Calm     32 % 0.00 in 628.00 W/m2
11:01 70.2 °F 39.0 °F 29.95 in Calm   4.0 mph 32 % 0.00 in 636.00 W/m2
11:06 70.7 °F 37.8 °F 29.95 in SE 1.0 mph 1.0 mph 30 % 0.00 in 645.00 W/m2
11:16 71.3 °F 34.7 °F 29.95 in SSE 2.0 mph 4.0 mph 26 % 0.00 in 659.00 W/m2
11:21 72.0 °F 35.3 °F 29.95 in Calm     26 % 0.00 in 668.00 W/m2
11:26 72.6 °F 36.7 °F 29.95 in Calm     27 % 0.00 in 675.00 W/m2
11:31 73.2 °F 38.2 °F 29.95 in WSW 4.0 mph 4.0 mph 28 % 0.00 in 680.00 W/m2
11:36 73.5 °F 38.4 °F 29.95 in Calm     28 % 0.00 in 687.00 W/m2
11:41 74.0 °F 37.0 °F 29.95 in West 3.0 mph 4.0 mph 26 % 0.00 in 693.00 W/m2
11:46 74.2 °F 36.2 °F 29.95 in Calm     25 % 0.00 in 698.00 W/m2
11:51 74.6 °F 36.5 °F 29.95 in Calm     25 % 0.00 in 703.00 W/m2
11:56 74.7 °F 40.4 °F 29.94 in Calm     29 % 0.00 in 705.00 W/m2
12:01 74.8 °F 40.5 °F 29.95 in West 2.0 mph 3.0 mph 29 % 0.00 in 710.00 W/m2
12:06 74.9 °F 39.6 °F 29.94 in WSW 6.0 mph 6.0 mph 28 % 0.00 in 712.00 W/m2
12:11 74.9 °F 38.7 °F 29.94 in West 1.0 mph 3.0 mph 27 % 0.00 in 717.00 W/m2
12:12 74.9 °F 38.7 °F 29.94 in West 2.0 mph 4.0 mph 27 % 0.00 in 719.00 W/m2
12:17 74.9 °F 37.7 °F 29.94 in Calm   2.0 mph 26 % 0.00 in 721.00 W/m2
12:22 74.9 °F 36.7 °F 29.93 in Calm   1.0 mph 25 % 0.00 in 724.00 W/m2
12:27 74.9 °F 37.7 °F 29.93 in West 1.0 mph 5.0 mph 26 % 0.00 in 728.00 W/m2
12:33 75.0 °F 37.8 °F 29.93 in Calm   6.0 mph 26 % 0.00 in 728.00 W/m2
12:38 75.2 °F 39.9 °F 29.93 in Calm   1.0 mph 28 % 0.00 in 728.00 W/m2
12:43 75.4 °F 38.2 °F 29.93 in West 5.0 mph 5.0 mph 26 % 0.00 in 726.00 W/m2
12:48 75.5 °F 38.2 °F 29.92 in West 1.0 mph 4.0 mph 26 % 0.00 in 729.00 W/m2
12:53 75.7 °F 38.4 °F 29.92 in West 3.0 mph 4.0 mph 26 % 0.00 in 729.00 W/m2
13:03 76.0 °F 37.7 °F 29.92 in Calm   3.0 mph 25 % 0.00 in 728.00 W/m2
13:08 76.2 °F 37.8 °F 29.92 in West 2.0 mph 3.0 mph 25 % 0.00 in 728.00 W/m2
13:13 76.5 °F 37.1 °F 29.92 in Calm   2.0 mph 24 % 0.00 in 726.00 W/m2
13:16 76.6 °F 37.1 °F 29.91 in Calm     24 % 0.00 in 724.00 W/m2
13:21 76.8 °F 36.2 °F 29.91 in Calm     23 % 0.00 in 724.00 W/m2
13:26 76.9 °F 36.3 °F 29.91 in Calm     23 % 0.00 in 717.00 W/m2
13:31 77.1 °F 37.6 °F 29.90 in Calm   2.0 mph 24 % 0.00 in 719.00 W/m2
13:36 77.4 °F 37.8 °F 29.90 in Calm     24 % 0.00 in 715.00 W/m2
13:41 77.6 °F 35.8 °F 29.90 in Calm     22 % 0.00 in 715.00 W/m2
13:46 78.0 °F 36.1 °F 29.89 in SSW 8.0 mph 8.0 mph 22 % 0.00 in 710.00 W/m2
13:50 78.3 °F 36.4 °F 29.89 in Calm   8.0 mph 22 % 0.00 in 710.00 W/m2
13:55 78.6 °F 37.7 °F 29.89 in SW 7.0 mph 7.0 mph 23 % 0.00 in 717.00 W/m2
14:00 79.0 °F 37.0 °F 29.88 in SW 1.0 mph 9.0 mph 22 % 0.00 in 714.00 W/m2
14:05 79.2 °F 37.1 °F 29.89 in Calm   6.0 mph 22 % 0.00 in 722.00 W/m2
14:11 79.1 °F 38.2 °F 29.88 in Calm     23 % 0.00 in 722.00 W/m2
14:12 79.1 °F 38.2 °F 29.88 in Calm     23 % 0.00 in 575.00 W/m2
14:17 78.9 °F 38.0 °F 29.89 in WSW 1.0 mph 5.0 mph 23 % 0.00 in 142.00 W/m2
14:22 78.6 °F 37.7 °F 29.89 in SW 2.0 mph 7.0 mph 23 % 0.00 in 237.00 W/m2
14:27 78.3 °F 37.5 °F 29.88 in West 3.0 mph 5.0 mph 23 % 0.00 in 670.00 W/m2
14:32 78.1 °F 38.4 °F 29.88 in Calm   8.0 mph 24 % 0.00 in 656.00 W/m2
14:37 78.0 °F 38.3 °F 29.88 in WSW 8.0 mph 8.0 mph 24 % 0.00 in 642.00 W/m2
14:42 78.2 °F 38.5 °F 29.88 in SW 2.0 mph 2.0 mph 24 % 0.00 in 631.00 W/m2
14:47 78.2 °F 38.5 °F 29.88 in WSW 3.0 mph 5.0 mph 24 % 0.00 in 594.00 W/m2
14:52 78.3 °F 37.5 °F 29.88 in WSW 4.0 mph 6.0 mph 23 % 0.00 in 592.00 W/m2
14:57 78.2 °F 37.4 °F 29.88 in WSW 6.0 mph 6.0 mph 23 % 0.00 in 526.00 W/m2
15:02 78.2 °F 38.5 °F 29.88 in Calm   1.0 mph 24 % 0.00 in 471.00 W/m2
15:07 78.1 °F 38.4 °F 29.88 in Calm   5.0 mph 24 % 0.00 in 573.00 W/m2
15:12 78.0 °F 38.3 °F 29.88 in WNW 3.0 mph 3.0 mph 24 % 0.00 in 559.00 W/m2
15:22 77.8 °F 38.2 °F 29.88 in Calm   4.0 mph 24 % 0.00 in 534.00 W/m2
15:27 77.9 °F 38.2 °F 29.88 in Calm   3.0 mph 24 % 0.00 in 520.00 W/m2
15:32 77.8 °F 37.1 °F 29.88 in WNW 1.0 mph 8.0 mph 23 % 0.00 in 506.00 W/m2
15:37 77.7 °F 37.0 °F 29.87 in Calm   5.0 mph 23 % 0.00 in 494.00 W/m2
15:42 77.6 °F 36.9 °F 29.87 in Calm   5.0 mph 23 % 0.00 in 478.00 W/m2
15:47 77.3 °F 37.7 °F 29.87 in WNW 3.0 mph 7.0 mph 24 % 0.00 in 466.00 W/m2
15:52 77.2 °F 37.7 °F 29.87 in Calm   2.0 mph 24 % 0.00 in 455.00 W/m2
15:57 77.1 °F 38.6 °F 29.87 in Calm   8.0 mph 25 % 0.00 in 441.00 W/m2
16:02 76.9 °F 38.4 °F 29.87 in Calm   6.0 mph 25 % 0.00 in 427.00 W/m2
16:07 76.8 °F 37.3 °F 29.86 in Calm   4.0 mph 24 % 0.00 in 413.00 W/m2
16:12 76.7 °F 37.2 °F 29.86 in Calm     24 % 0.00 in 403.00 W/m2
16:17 76.6 °F 37.1 °F 29.86 in Calm   2.0 mph 24 % 0.00 in 387.00 W/m2
16:22 76.5 °F 37.1 °F 29.86 in Calm   1.0 mph 24 % 0.00 in 373.00 W/m2
16:27 76.4 °F 37.0 °F 29.85 in Calm     24 % 0.00 in 359.00 W/m2
16:32 76.4 °F 37.0 °F 29.85 in Calm     24 % 0.00 in 341.00 W/m2
16:37 76.3 °F 36.9 °F 29.85 in Calm     24 % 0.00 in 327.00 W/m2
16:42 76.3 °F 37.9 °F 29.85 in West 1.0 mph 5.0 mph 25 % 0.00 in 315.00 W/m2
16:47 76.2 °F 37.8 °F 29.85 in Calm     25 % 0.00 in 297.00 W/m2
16:53 76.2 °F 36.8 °F 29.85 in Calm     24 % 0.00 in 281.00 W/m2
16:58 76.1 °F 37.8 °F 29.85 in Calm     25 % 0.00 in 267.00 W/m2
17:03 76.0 °F 37.7 °F 29.85 in Calm     25 % 0.00 in 250.00 W/m2
17:08 75.9 °F 37.6 °F 29.85 in Calm     25 % 0.00 in 234.00 W/m2
17:13 75.9 °F 37.6 °F 29.84 in Calm     25 % 0.00 in 216.00 W/m2
17:18 75.8 °F 38.5 °F 29.84 in Calm   1.0 mph 26 % 0.00 in 202.00 W/m2
17:23 75.5 °F 38.2 °F 29.84 in Calm     26 % 0.00 in 185.00 W/m2
17:28 75.4 °F 37.2 °F 29.84 in Calm   1.0 mph 25 % 0.00 in 163.00 W/m2
17:33 75.2 °F 38.0 °F 29.84 in Calm   1.0 mph 26 % 0.00 in 144.00 W/m2
17:38 75.1 °F 38.9 °F 29.83 in Calm   1.0 mph 27 % 0.00 in 123.00 W/m2
17:43 74.9 °F 38.7 °F 29.83 in Calm   1.0 mph 27 % 0.00 in 104.00 W/m2
17:48 74.7 °F 39.5 °F 29.84 in Calm     28 % 0.00 in 86.00 W/m2
17:53 74.4 °F 39.2 °F 29.84 in Calm   1.0 mph 28 % 0.00 in 69.00 W/m2
17:58 74.1 °F 39.0 °F 29.84 in Calm     28 % 0.00 in 53.00 W/m2
18:03 73.8 °F 38.7 °F 29.84 in Calm     28 % 0.00 in 42.00 W/m2
18:08 73.4 °F 38.3 °F 29.84 in Calm     28 % 0.00 in 30.00 W/m2
18:13 72.8 °F 38.7 °F 29.84 in Calm     29 % 0.00 in 21.00 W/m2
18:18 72.3 °F 39.2 °F 29.84 in Calm     30 % 0.00 in 16.00 W/m2
18:23 71.7 °F 38.6 °F 29.84 in Calm     30 % 0.00 in 12.00 W/m2
18:28 71.1 °F 39.0 °F 29.84 in Calm     31 % 0.00 in 11.00 W/m2
18:33 70.4 °F 38.3 °F 29.84 in Calm     31 % 0.00 in 7.00 W/m2
18:38 70.0 °F 38.8 °F 29.84 in Calm     32 % 0.00 in 5.00 W/m2
18:43 69.5 °F 38.4 °F 29.84 in Calm     32 % 0.00 in 0.00 W/m2
18:48 69.0 °F 38.7 °F 29.83 in Calm     33 % 0.00 in 0.00 W/m2
18:53 68.6 °F 38.4 °F 29.83 in Calm     33 % 0.00 in 0.00 W/m2
18:58 68.1 °F 38.7 °F 29.83 in Calm     34 % 0.00 in 0.00 W/m2
19:03 67.7 °F 37.6 °F 29.83 in Calm     33 % 0.00 in 0.00 W/m2
19:08 67.3 °F 38.0 °F 29.83 in Calm   1.0 mph 34 % 0.00 in 0.00 W/m2
19:13 67.0 °F 37.7 °F 29.83 in Calm     34 % 0.00 in 0.00 W/m2
19:18 66.7 °F 37.5 °F 29.83 in Calm     34 % 0.00 in 0.00 W/m2
19:23 66.5 °F 37.3 °F 29.83 in Calm     34 % 0.00 in 0.00 W/m2
19:28 66.4 °F 37.2 °F 29.83 in Calm     34 % 0.00 in 0.00 W/m2
19:33 66.2 °F 37.8 °F 29.83 in Calm     35 % 0.00 in 0.00 W/m2
19:38 66.1 °F 37.7 °F 29.83 in Calm     35 % 0.00 in 0.00 W/m2
19:40 66.1 °F 37.7 °F 29.83 in Calm     35 % 0.00 in 0.00 W/m2
19:45 65.8 °F 37.4 °F 29.82 in Calm     35 % 0.00 in 0.00 W/m2
19:50 65.5 °F 37.2 °F 29.83 in Calm     35 % 0.00 in 0.00 W/m2
19:55 65.2 °F 37.6 °F 29.83 in Calm     36 % 0.00 in 0.00 W/m2
20:00 65.0 °F 37.4 °F 29.83 in Calm     36 % 0.00 in 0.00 W/m2
20:05 64.8 °F 37.9 °F 29.83 in Calm     37 % 0.00 in 0.00 W/m2
20:11 64.7 °F 37.8 °F 29.83 in Calm     37 % 0.00 in 0.00 W/m2
20:21 64.5 °F 37.7 °F 29.83 in Calm     37 % 0.00 in 0.00 W/m2
20:23 64.5 °F 37.7 °F 29.83 in Calm     37 % 0.00 in 0.00 W/m2
20:28 64.4 °F 37.6 °F 29.83 in Calm     37 % 0.00 in 0.00 W/m2
20:33 64.3 °F 37.5 °F 29.83 in Calm     37 % 0.00 in 0.00 W/m2
20:38 64.1 °F 38.0 °F 29.83 in Calm     38 % 0.00 in 0.00 W/m2
20:43 64.0 °F 37.9 °F 29.83 in Calm   4.0 mph 38 % 0.00 in 0.00 W/m2
20:48 63.8 °F 37.7 °F 29.83 in WSW 2.0 mph 3.0 mph 38 % 0.00 in 0.00 W/m2
20:53 63.7 °F 37.6 °F 29.83 in Calm   2.0 mph 38 % 0.00 in 0.00 W/m2
20:58 63.7 °F 37.6 °F 29.83 in Calm   1.0 mph 38 % 0.00 in 0.00 W/m2
21:03 63.7 °F 37.6 °F 29.83 in Calm     38 % 0.00 in 0.00 W/m2
21:08 63.6 °F 37.5 °F 29.83 in Calm     38 % 0.00 in 0.00 W/m2
21:13 63.6 °F 37.5 °F 29.83 in Calm   5.0 mph 38 % 0.00 in 0.00 W/m2
21:18 63.5 °F 37.5 °F 29.83 in Calm   7.0 mph 38 % 0.00 in 0.00 W/m2
21:23 63.5 °F 37.5 °F 29.83 in Calm   8.0 mph 38 % 0.00 in 0.00 W/m2
21:28 63.4 °F 37.4 °F 29.82 in ESE 5.0 mph 7.0 mph 38 % 0.00 in 0.00 W/m2
21:33 63.4 °F 37.4 °F 29.82 in East 4.0 mph 11.0 mph 38 % 0.00 in 0.00 W/m2
21:38 63.3 °F 37.3 °F 29.83 in East 1.0 mph 8.0 mph 38 % 0.00 in 0.00 W/m2
21:43 63.3 °F 37.3 °F 29.83 in Calm   7.0 mph 38 % 0.00 in 0.00 W/m2
21:48 63.2 °F 37.2 °F 29.83 in East 1.0 mph 7.0 mph 38 % 0.00 in 0.00 W/m2
21:53 63.2 °F 37.2 °F 29.82 in Calm   8.0 mph 38 % 0.00 in 0.00 W/m2
22:03 63.2 °F 37.2 °F 29.82 in East 1.0 mph 11.0 mph 38 % 0.00 in 0.00 W/m2
22:08 63.2 °F 37.2 °F 29.82 in Calm   8.0 mph 38 % 0.00 in 0.00 W/m2
22:13 63.2 °F 36.5 °F 29.82 in East 5.0 mph 11.0 mph 37 % 0.00 in 0.00 W/m2
22:18 63.2 °F 37.2 °F 29.82 in East 2.0 mph 11.0 mph 38 % 0.00 in 0.00 W/m2
22:23 63.2 °F 37.2 °F 29.82 in East 4.0 mph 11.0 mph 38 % 0.00 in 0.00 W/m2
22:28 63.2 °F 37.2 °F 29.82 in East 12.0 mph 15.0 mph 38 % 0.00 in 0.00 W/m2
22:33 63.1 °F 36.4 °F 29.82 in East 4.0 mph 13.0 mph 37 % 0.00 in 0.00 W/m2
22:38 63.0 °F 36.3 °F 29.82 in Calm   12.0 mph 37 % 0.00 in 0.00 W/m2
22:43 63.0 °F 36.3 °F 29.82 in ESE 7.0 mph 11.0 mph 37 % 0.00 in 0.00 W/m2
22:48 63.0 °F 36.3 °F 29.82 in Calm   12.0 mph 37 % 0.00 in 0.00 W/m2
22:53 63.0 °F 36.3 °F 29.82 in Calm   14.0 mph 37 % 0.00 in 0.00 W/m2
22:58 62.9 °F 36.2 °F 29.82 in East 6.0 mph 13.0 mph 37 % 0.00 in 0.00 W/m2
23:03 62.9 °F 36.2 °F 29.82 in Calm   12.0 mph 37 % 0.00 in 0.00 W/m2
23:08 62.9 °F 36.2 °F 29.81 in East 8.0 mph 12.0 mph 37 % 0.00 in 0.00 W/m2
23:13 62.9 °F 36.2 °F 29.82 in East 5.0 mph 11.0 mph 37 % 0.00 in 0.00 W/m2
23:18 62.9 °F 36.2 °F 29.82 in East 6.0 mph 8.0 mph 37 % 0.00 in 0.00 W/m2
23:23 62.8 °F 36.2 °F 29.82 in ESE 8.0 mph 9.0 mph 37 % 0.00 in 0.00 W/m2
23:28 62.8 °F 36.2 °F 29.82 in East 5.0 mph 11.0 mph 37 % 0.00 in 0.00 W/m2
23:33 62.8 °F 36.2 °F 29.82 in ESE 4.0 mph 11.0 mph 37 % 0.00 in 0.00 W/m2
23:38 62.8 °F 36.2 °F 29.82 in East 4.0 mph 14.0 mph 37 % 0.00 in 0.00 W/m2
23:43 62.7 °F 36.1 °F 29.82 in East 2.0 mph 13.0 mph 37 % 0.00 in 0.00 W/m2
23:48 62.6 °F 36.0 °F 29.81 in East 5.0 mph 16.0 mph 37 % 0.00 in 0.00 W/m2
23:53 62.6 °F 36.0 °F 29.81 in East 12.0 mph 14.0 mph 37 % 0.00 in 0.00 W/m2
23:58 62.6 °F 36.0 °F 29.81 in ESE 4.0 mph 15.0 mph 37 % 0.00 in 0.00 W/m2
Juneau County Weather
Compliments of Weather Underground - 4.5 mb
 WU-history PHP script courtesy of   Juneau County Weather.
powered by Cumulus v1.9.3 (1059)
Ambient Weather VWS v14.00
Top Contact Website Map Copyright © 2007 - 2018 Foresthillweather.com Never base important decisions on this or any weather information obtained from the Internet